Time;durP1;ratioP1;P1;durP2;ratioP2;P2;SDS_P1;SDS_P2;PMS_P1;PMS_P2;Temp;Humidity;BMP_temperature;BMP_pressure;BME280_temperature;BME280_humidity;BME280_pressure;Samples;Min_cycle;Max_cycle;Signal;HPM_P1;HPM_P2
2022/10/12 00:00:41;;;;;;;10.33;3.90;;;;;;;;;;5054265;28;20221;-44
2022/10/12 00:03:07;;;;;;;7.37;3.30;;;;;;;;;;5054089;28;20199;-44
2022/10/12 00:05:33;;;;;;;4.63;2.90;;;;;;;;;;5053840;28;20250;-44
2022/10/12 00:07:59;;;;;;;4.90;2.77;;;;;;;;;;5053852;28;20228;-44
2022/10/12 00:10:26;;;;;;;4.17;2.67;;;;;;;;;;5052257;28;20427;-45
2022/10/12 00:12:52;;;;;;;4.70;2.80;;;;;;;;;;5053886;28;20533;-44
2022/10/12 00:15:18;;;;;;;5.13;2.93;;;;;;;;;;5053712;28;20518;-45
2022/10/12 00:17:44;;;;;;;7.63;2.93;;;;;;;;;;5053622;28;20630;-45
2022/10/12 00:20:11;;;;;;;3.50;2.70;;;;;;;;;;5053252;28;20307;-46
2022/10/12 00:22:37;;;;;;;6.00;3.00;;;;;;;;;;5053609;28;20466;-46
2022/10/12 00:25:03;;;;;;;3.33;2.87;;;;;;;;;;5053454;28;20565;-45
2022/10/12 00:27:31;;;;;;;4.30;2.50;;;;;;;;;;5053211;28;20999;-46
2022/10/12 00:29:57;;;;;;;7.77;3.10;;;;;;;;;;5053345;28;20431;-46
2022/10/12 00:32:23;;;;;;;5.20;2.93;;;;;;;;;;5053562;28;20569;-45
2022/10/12 00:34:49;;;;;;;3.37;2.67;;;;;;;;;;5053454;28;20204;-46
2022/10/12 00:37:15;;;;;;;5.30;3.17;;;;;;;;;;5053147;28;20200;-46
2022/10/12 00:39:41;;;;;;;4.00;2.47;;;;;;;;;;5053422;28;20473;-46
2022/10/12 00:42:07;;;;;;;4.57;2.97;;;;;;;;;;5053197;28;20197;-46
2022/10/12 00:44:35;;;;;;;3.97;2.83;;;;;;;;;;5053532;28;20288;-46
2022/10/12 00:47:03;;;;;;;3.33;2.63;;;;;;;;;;5053335;28;20901;-46
2022/10/12 00:49:29;;;;;;;5.97;2.67;;;;;;;;;;5053031;28;20484;-45
2022/10/12 00:51:58;;;;;;;5.23;2.80;;;;;;;;;;5053063;28;20438;-45
2022/10/12 00:54:26;;;;;;;4.93;2.50;;;;;;;;;;5052986;28;20474;-46
2022/10/12 00:56:52;;;;;;;3.40;2.60;;;;;;;;;;5052550;28;20518;-45
2022/10/12 00:59:22;;;;;;;6.03;2.83;;;;;;;;;;5053216;28;20832;-46
2022/10/12 01:01:50;;;;;;;4.50;2.73;;;;;;;;;;5052891;28;20485;-45
2022/10/12 01:04:16;;;;;;;4.57;2.63;;;;;;;;;;5052694;28;20814;-46
2022/10/12 01:06:42;;;;;;;4.73;2.70;;;;;;;;;;5052785;28;20435;-46
2022/10/12 01:09:08;;;;;;;5.67;2.77;;;;;;;;;;5052796;28;20450;-46
2022/10/12 01:11:34;;;;;;;3.53;2.80;;;;;;;;;;5052688;28;20514;-46
2022/10/12 01:14:00;;;;;;;6.20;2.90;;;;;;;;;;5052704;28;20438;-46
2022/10/12 01:16:28;;;;;;;6.87;2.80;;;;;;;;;;5052572;28;21016;-46
2022/10/12 01:19:01;;;;;;;5.50;2.80;;;;;;;;;;5052659;28;20812;-46
2022/10/12 01:21:28;;;;;;;6.70;3.27;;;;;;;;;;5052847;28;20969;-46
2022/10/12 01:24:12;;;;;;;4.40;2.60;;;;;;;;;;5052417;28;20492;-46
2022/10/12 01:27:00;;;;;;;6.20;2.93;;;;;;;;;;5052300;28;20437;-45
2022/10/12 01:29:41;;;;;;;7.60;3.07;;;;;;;;;;5052390;28;20438;-45
2022/10/12 01:32:12;;;;;;;5.60;2.77;;;;;;;;;;5019094;28;20449;-46
2022/10/12 01:34:42;;;;;;;6.17;3.17;;;;;;;;;;5052077;28;20446;-46
2022/10/12 01:37:11;;;;;;;4.53;2.90;;;;;;;;;;5051038;28;20874;-46
2022/10/12 01:39:39;;;;;;;4.50;3.07;;;;;;;;;;5052218;28;20787;-46
2022/10/12 01:42:08;;;;;;;3.70;2.80;;;;;;;;;;5052149;28;20538;-46
2022/10/12 01:44:34;;;;;;;3.97;2.83;;;;;;;;;;5052154;28;20510;-46
2022/10/12 01:47:00;;;;;;;5.53;2.83;;;;;;;;;;5052092;28;20434;-46
2022/10/12 01:49:29;;;;;;;6.97;3.17;;;;;;;;;;5051385;28;20855;-46
2022/10/12 01:51:59;;;;;;;6.23;3.10;;;;;;;;;;5052257;28;20439;-45
2022/10/12 01:54:28;;;;;;;3.87;2.73;;;;;;;;;;5051995;28;20467;-45
2022/10/12 01:56:57;;;;;;;5.13;2.83;;;;;;;;;;5051804;28;20505;-46
2022/10/12 01:59:29;;;;;;;4.93;2.87;;;;;;;;;;5052159;28;20445;-46
2022/10/12 02:01:57;;;;;;;5.27;3.40;;;;;;;;;;5051843;28;20471;-46
2022/10/12 02:04:27;;;;;;;5.83;2.97;;;;;;;;;;5051953;28;20467;-45
2022/10/12 02:06:58;;;;;;;7.93;3.37;;;;;;;;;;5051839;28;20473;-45
2022/10/12 02:09:26;;;;;;;7.30;2.73;;;;;;;;;;5051783;28;20508;-45
2022/10/12 02:11:53;;;;;;;2.97;2.40;;;;;;;;;;5051701;28;20458;-46
2022/10/12 02:14:21;;;;;;;3.13;2.70;;;;;;;;;;5051754;28;20446;-45
2022/10/12 02:16:49;;;;;;;5.23;3.13;;;;;;;;;;5051655;28;20869;-45
2022/10/12 02:19:17;;;;;;;4.17;3.00;;;;;;;;;;5051728;28;20435;-46
2022/10/12 02:21:44;;;;;;;7.73;3.07;;;;;;;;;;5051500;28;20509;-46
2022/10/12 02:24:12;;;;;;;3.77;2.40;;;;;;;;;;5051396;28;20785;-45
2022/10/12 02:26:41;;;;;;;4.23;2.40;;;;;;;;;;5051436;28;20442;-45
2022/10/12 02:29:09;;;;;;;3.30;2.50;;;;;;;;;;5051558;28;20443;-45
2022/10/12 02:31:37;;;;;;;5.03;2.83;;;;;;;;;;5051597;28;20446;-46
2022/10/12 02:34:07;;;;;;;5.57;2.73;;;;;;;;;;5051445;28;20430;-45
2022/10/12 02:36:37;;;;;;;3.40;2.63;;;;;;;;;;5051259;28;20451;-46
2022/10/12 02:39:07;;;;;;;4.10;2.53;;;;;;;;;;5051055;28;20466;-46
2022/10/12 02:41:37;;;;;;;3.70;2.50;;;;;;;;;;5050006;28;20482;-45
2022/10/12 02:44:07;;;;;;;7.23;3.13;;;;;;;;;;5051139;28;20427;-45
2022/10/12 02:46:34;;;;;;;2.67;2.40;;;;;;;;;;5051479;28;20515;-46
2022/10/12 02:49:00;;;;;;;3.47;2.60;;;;;;;;;;5051171;28;20443;-45
2022/10/12 02:51:28;;;;;;;3.20;2.50;;;;;;;;;;5051093;28;20475;-45
2022/10/12 02:53:55;;;;;;;4.60;2.80;;;;;;;;;;5051334;28;20431;-45
2022/10/12 02:56:22;;;;;;;4.53;3.10;;;;;;;;;;5051164;28;20427;-45
2022/10/12 02:58:49;;;;;;;5.20;3.03;;;;;;;;;;5051190;28;20435;-45
2022/10/12 03:01:15;;;;;;;4.77;2.80;;;;;;;;;;5052032;28;20520;-45
2022/10/12 03:03:41;;;;;;;5.10;2.57;;;;;;;;;;5054177;28;20450;-46
2022/10/12 03:06:08;;;;;;;3.67;2.80;;;;;;;;;;5055210;28;20516;-45
2022/10/12 03:08:34;;;;;;;3.50;2.33;;;;;;;;;;5055076;28;20485;-45
2022/10/12 03:11:01;;;;;;;5.60;2.73;;;;;;;;;;5055154;28;20469;-46
2022/10/12 03:13:27;;;;;;;4.00;2.67;;;;;;;;;;5055182;28;20434;-46
2022/10/12 03:16:00;;;;;;;3.57;2.50;;;;;;;;;;5054961;28;20431;-45
2022/10/12 03:18:26;;;;;;;4.43;2.70;;;;;;;;;;5054822;28;20438;-45
2022/10/12 03:20:52;;;;;;;3.90;2.63;;;;;;;;;;5054428;28;20816;-45
2022/10/12 03:23:18;;;;;;;4.37;2.43;;;;;;;;;;5053381;28;20200;-45
2022/10/12 03:25:44;;;;;;;5.13;2.60;;;;;;;;;;5054802;28;20200;-46
2022/10/12 03:28:10;;;;;;;6.57;2.87;;;;;;;;;;5054652;28;20488;-45
2022/10/12 03:30:36;;;;;;;3.33;2.47;;;;;;;;;;5054740;28;20561;-45
2022/10/12 03:33:03;;;;;;;5.80;2.80;;;;;;;;;;5054608;28;20192;-45
2022/10/12 03:35:29;;;;;;;5.60;2.53;;;;;;;;;;5054728;28;20485;-45
2022/10/12 03:37:55;;;;;;;3.50;2.80;;;;;;;;;;5054540;28;20445;-45
2022/10/12 03:40:21;;;;;;;3.67;2.70;;;;;;;;;;5054489;28;20466;-45
2022/10/12 03:42:47;;;;;;;5.30;2.87;;;;;;;;;;5054557;28;20439;-46
2022/10/12 03:45:13;;;;;;;3.73;2.63;;;;;;;;;;5054354;28;20442;-46
2022/10/12 03:47:39;;;;;;;3.10;2.60;;;;;;;;;;5054442;28;20692;-45
2022/10/12 03:50:07;;;;;;;3.70;2.50;;;;;;;;;;5054320;28;20984;-45
2022/10/12 03:52:33;;;;;;;3.63;2.60;;;;;;;;;;5054567;28;20438;-46
2022/10/12 03:54:59;;;;;;;4.97;2.60;;;;;;;;;;5054124;28;20542;-46
2022/10/12 03:57:25;;;;;;;3.93;2.97;;;;;;;;;;5054287;28;20518;-46
2022/10/12 03:59:51;;;;;;;5.10;3.10;;;;;;;;;;5054192;28;20283;-46
2022/10/12 04:02:17;;;;;;;6.00;2.80;;;;;;;;;;5053766;28;20517;-46
2022/10/12 04:04:43;;;;;;;8.73;2.93;;;;;;;;;;5053511;28;20500;-46
2022/10/12 04:07:11;;;;;;;4.83;2.70;;;;;;;;;;5053912;28;20852;-45
2022/10/12 04:09:37;;;;;;;3.13;2.33;;;;;;;;;;5054020;28;21037;-45
2022/10/12 04:12:03;;;;;;;4.53;2.87;;;;;;;;;;5053142;28;20475;-46
2022/10/12 04:14:29;;;;;;;3.77;3.00;;;;;;;;;;5053667;28;20488;-46
2022/10/12 04:16:55;;;;;;;5.80;3.77;;;;;;;;;;5053891;28;20435;-46
2022/10/12 04:19:21;;;;;;;5.47;3.50;;;;;;;;;;5053695;28;20442;-46
2022/10/12 04:21:47;;;;;;;6.10;3.17;;;;;;;;;;5053687;28;20525;-46
2022/10/12 04:24:14;;;;;;;6.43;3.20;;;;;;;;;;5053710;28;20462;-46
2022/10/12 04:26:40;;;;;;;5.07;3.10;;;;;;;;;;5053589;28;20450;-45
2022/10/12 04:29:06;;;;;;;5.97;3.00;;;;;;;;;;5052912;28;20430;-45
2022/10/12 04:31:32;;;;;;;7.80;3.30;;;;;;;;;;5053786;28;20476;-46
2022/10/12 04:33:58;;;;;;;5.10;3.10;;;;;;;;;;5052372;28;20430;-45
2022/10/12 04:36:25;;;;;;;7.93;3.30;;;;;;;;;;5053527;28;20937;-46
2022/10/12 04:38:51;;;;;;;4.60;2.80;;;;;;;;;;5053409;28;20223;-46
2022/10/12 04:41:19;;;;;;;4.73;3.10;;;;;;;;;;5053374;28;20965;-46
2022/10/12 04:43:45;;;;;;;5.77;2.80;;;;;;;;;;5053240;28;20426;-45
2022/10/12 04:46:11;;;;;;;4.33;2.80;;;;;;;;;;5052999;28;20450;-46
2022/10/12 04:48:37;;;;;;;4.20;2.70;;;;;;;;;;5053010;28;20242;-45
2022/10/12 04:51:04;;;;;;;3.27;2.60;;;;;;;;;;5053057;28;20474;-46
2022/10/12 04:53:30;;;;;;;4.37;2.67;;;;;;;;;;5053023;28;20435;-45
2022/10/12 04:55:56;;;;;;;6.07;2.80;;;;;;;;;;5052751;28;20484;-46
2022/10/12 04:58:24;;;;;;;4.80;2.93;;;;;;;;;;5053052;28;20534;-44
2022/10/12 05:00:50;;;;;;;4.03;2.77;;;;;;;;;;5053089;28;20589;-46
2022/10/12 05:03:16;;;;;;;4.17;2.80;;;;;;;;;;5052608;28;20435;-44
2022/10/12 05:05:43;;;;;;;3.20;2.50;;;;;;;;;;5052555;28;20442;-44
2022/10/12 05:08:09;;;;;;;7.23;3.60;;;;;;;;;;5051797;28;20460;-46
2022/10/12 05:10:35;;;;;;;5.97;3.87;;;;;;;;;;5052705;28;20486;-47
2022/10/12 05:13:01;;;;;;;9.13;4.60;;;;;;;;;;5052593;28;20485;-46
2022/10/12 05:15:29;;;;;;;6.93;4.03;;;;;;;;;;5053257;28;20528;-46
2022/10/12 05:17:55;;;;;;;8.33;4.90;;;;;;;;;;5052707;28;20458;-46
2022/10/12 05:20:21;;;;;;;10.27;4.87;;;;;;;;;;5052659;28;20550;-46
2022/10/12 05:22:47;;;;;;;8.10;4.07;;;;;;;;;;5052581;28;20441;-46
2022/10/12 05:25:13;;;;;;;6.27;3.83;;;;;;;;;;5051213;28;20955;-46
2022/10/12 05:27:39;;;;;;;5.87;4.10;;;;;;;;;;5052718;28;20441;-45
2022/10/12 05:30:06;;;;;;;7.20;3.90;;;;;;;;;;5052473;28;20431;-46
2022/10/12 05:32:34;;;;;;;5.80;3.90;;;;;;;;;;5052225;28;20944;-44
2022/10/12 05:35:00;;;;;;;5.87;3.80;;;;;;;;;;5049291;28;20442;-45
2022/10/12 05:37:26;;;;;;;6.27;3.77;;;;;;;;;;5051124;28;20423;-45
2022/10/12 05:39:52;;;;;;;8.77;4.40;;;;;;;;;;5052099;28;20936;-45
2022/10/12 05:42:18;;;;;;;6.47;4.60;;;;;;;;;;5051553;28;20231;-45
2022/10/12 05:44:44;;;;;;;8.77;4.67;;;;;;;;;;5051958;28;20443;-45
2022/10/12 05:47:10;;;;;;;7.17;4.57;;;;;;;;;;5052144;28;20948;-45
2022/10/12 05:49:37;;;;;;;8.10;4.87;;;;;;;;;;5051906;28;20808;-44
2022/10/12 05:52:03;;;;;;;6.80;4.77;;;;;;;;;;5051682;28;20467;-45
2022/10/12 05:54:29;;;;;;;6.33;4.60;;;;;;;;;;5052011;28;20449;-45
2022/10/12 05:56:56;;;;;;;6.50;4.70;;;;;;;;;;5052032;28;20522;-45
2022/10/12 05:59:22;;;;;;;8.67;4.63;;;;;;;;;;5051721;28;20478;-45
2022/10/12 06:01:48;;;;;;;5.67;3.87;;;;;;;;;;5051199;28;20474;-45
2022/10/12 06:04:14;;;;;;;6.40;4.33;;;;;;;;;;5051748;28;20525;-45
2022/10/12 06:06:42;;;;;;;5.30;4.33;;;;;;;;;;5050196;28;20492;-45
2022/10/12 06:09:08;;;;;;;4.53;3.80;;;;;;;;;;5051012;28;20454;-45
2022/10/12 06:11:34;;;;;;;5.90;4.17;;;;;;;;;;5051456;28;20481;-45
2022/10/12 06:14:00;;;;;;;4.93;4.10;;;;;;;;;;5051357;28;20443;-45
2022/10/12 06:16:26;;;;;;;7.33;4.67;;;;;;;;;;5051804;28;20442;-44
2022/10/12 06:18:52;;;;;;;7.33;4.27;;;;;;;;;;5051318;28;20443;-45
2022/10/12 06:21:18;;;;;;;7.20;3.87;;;;;;;;;;5050966;28;20232;-45
2022/10/12 06:23:45;;;;;;;6.57;3.90;;;;;;;;;;5050603;28;20435;-45
2022/10/12 06:26:11;;;;;;;8.00;4.20;;;;;;;;;;5050836;28;20450;-45
2022/10/12 06:28:37;;;;;;;6.13;4.23;;;;;;;;;;5051313;28;20514;-45
2022/10/12 06:31:04;;;;;;;9.20;5.80;;;;;;;;;;5051299;28;20477;-45
2022/10/12 06:33:30;;;;;;;6.83;5.60;;;;;;;;;;5051469;28;20427;-45
2022/10/12 06:35:56;;;;;;;10.23;6.03;;;;;;;;;;5050948;28;21015;-45
2022/10/12 06:38:22;;;;;;;10.43;5.93;;;;;;;;;;5051200;28;20224;-45
2022/10/12 06:40:51;;;;;;;9.17;5.50;;;;;;;;;;5050193;28;20466;-45
2022/10/12 06:43:17;;;;;;;7.33;5.47;;;;;;;;;;5051106;28;20443;-45
2022/10/12 06:45:43;;;;;;;6.67;5.20;;;;;;;;;;5050949;28;20427;-45
2022/10/12 06:48:09;;;;;;;6.00;5.03;;;;;;;;;;5050925;28;20434;-45
2022/10/12 06:50:35;;;;;;;8.27;5.77;;;;;;;;;;5050743;28;20254;-45
2022/10/12 06:53:01;;;;;;;7.23;6.40;;;;;;;;;;5051098;28;20442;-45
2022/10/12 06:55:27;;;;;;;6.77;6.10;;;;;;;;;;5050709;28;20439;-44
2022/10/12 06:57:56;;;;;;;9.53;6.10;;;;;;;;;;5051094;28;20514;-44
2022/10/12 07:00:22;;;;;;;8.63;6.07;;;;;;;;;;5051236;28;20204;-45
2022/10/12 07:03:00;;;;;;;9.70;5.50;;;;;;;;;;5051233;28;20474;-44
2022/10/12 07:05:26;;;;;;;7.10;5.43;;;;;;;;;;5049593;28;20501;-44
2022/10/12 07:07:52;;;;;;;6.83;4.73;;;;;;;;;;5051473;28;20542;-44
2022/10/12 07:10:18;;;;;;;5.43;4.07;;;;;;;;;;5051347;28;20441;-44
2022/10/12 07:12:44;;;;;;;6.50;4.47;;;;;;;;;;5051427;28;20200;-44
2022/10/12 07:15:12;;;;;;;6.87;3.63;;;;;;;;;;5051302;28;20462;-44
2022/10/12 07:17:38;;;;;;;7.33;3.67;;;;;;;;;;5051394;28;20484;-44
2022/10/12 07:20:04;;;;;;;7.93;3.33;;;;;;;;;;5051547;28;20435;-44
2022/10/12 07:22:30;;;;;;;4.23;3.40;;;;;;;;;;5051349;28;20228;-44
2022/10/12 07:24:57;;;;;;;7.03;4.33;;;;;;;;;;5051303;28;20463;-45
2022/10/12 07:27:23;;;;;;;6.17;3.67;;;;;;;;;;5051294;28;20243;-44
2022/10/12 07:29:49;;;;;;;6.23;3.60;;;;;;;;;;5051433;28;20200;-44
2022/10/12 07:32:16;;;;;;;7.77;3.43;;;;;;;;;;5051205;28;20254;-44
2022/10/12 07:34:43;;;;;;;6.57;3.83;;;;;;;;;;5051214;28;20204;-44
2022/10/12 07:37:10;;;;;;;7.50;3.70;;;;;;;;;;5051288;28;20223;-45
2022/10/12 07:39:36;;;;;;;6.17;4.37;;;;;;;;;;5051310;28;20207;-45
2022/10/12 07:42:03;;;;;;;7.13;4.33;;;;;;;;;;5051070;28;20216;-44
2022/10/12 07:44:29;;;;;;;6.37;3.77;;;;;;;;;;5051218;28;20197;-45
2022/10/12 07:46:55;;;;;;;5.87;3.53;;;;;;;;;;5051708;28;20201;-44
2022/10/12 07:49:23;;;;;;;7.00;4.17;;;;;;;;;;5054492;28;20670;-44
2022/10/12 07:51:49;;;;;;;6.77;4.43;;;;;;;;;;5054772;28;20288;-43
2022/10/12 07:54:15;;;;;;;12.63;5.17;;;;;;;;;;5054545;28;20334;-44
2022/10/12 07:56:41;;;;;;;9.67;6.10;;;;;;;;;;5054588;28;20568;-44
2022/10/12 07:59:07;;;;;;;10.10;5.20;;;;;;;;;;5054558;28;20658;-44
2022/10/12 08:01:33;;;;;;;6.37;4.50;;;;;;;;;;5054581;28;20690;-44
2022/10/12 08:03:59;;;;;;;6.80;4.23;;;;;;;;;;5054380;28;20227;-45
2022/10/12 08:06:29;;;;;;;7.83;3.80;;;;;;;;;;5054707;28;20265;-44
2022/10/12 08:08:55;;;;;;;10.53;4.37;;;;;;;;;;5054546;28;20789;-44
2022/10/12 08:11:21;;;;;;;5.20;3.60;;;;;;;;;;5054257;28;20247;-43
2022/10/12 08:13:47;;;;;;;9.27;3.30;;;;;;;;;;5054403;28;20200;-44
2022/10/12 08:16:14;;;;;;;7.13;3.20;;;;;;;;;;5054327;28;20192;-48
2022/10/12 08:18:41;;;;;;;6.70;2.90;;;;;;;;;;5054338;28;20200;-45
2022/10/12 08:21:08;;;;;;;7.60;3.10;;;;;;;;;;5054215;28;20212;-45
2022/10/12 08:23:35;;;;;;;11.13;3.40;;;;;;;;;;5054391;28;20261;-45
2022/10/12 08:26:02;;;;;;;6.93;2.93;;;;;;;;;;5054220;28;20200;-45
2022/10/12 08:28:28;;;;;;;6.57;3.10;;;;;;;;;;5054341;28;20204;-45
2022/10/12 08:30:54;;;;;;;6.77;2.90;;;;;;;;;;5054144;28;20203;-44
2022/10/12 08:33:20;;;;;;;5.40;3.07;;;;;;;;;;5054012;28;20239;-44
2022/10/12 08:35:49;;;;;;;7.63;2.90;;;;;;;;;;5053908;28;20223;-44
2022/10/12 08:38:16;;;;;;;7.63;3.27;;;;;;;;;;5053987;28;20591;-44
2022/10/12 08:40:47;;;;;;;8.30;3.07;;;;;;;;;;5053756;28;20227;-45
2022/10/12 08:43:15;;;;;;;9.30;3.10;;;;;;;;;;5053738;28;20204;-45
2022/10/12 08:45:45;;;;;;;7.63;2.60;;;;;;;;;;5053831;28;20667;-45
2022/10/12 08:48:13;;;;;;;7.57;2.53;;;;;;;;;;5053628;28;20659;-45
2022/10/12 08:50:42;;;;;;;6.17;2.60;;;;;;;;;;5053470;28;20264;-45
2022/10/12 08:53:11;;;;;;;4.83;2.40;;;;;;;;;;5053310;28;20276;-45
2022/10/12 08:55:41;;;;;;;6.03;2.50;;;;;;;;;;5053282;28;20196;-45
2022/10/12 08:58:13;;;;;;;8.87;2.60;;;;;;;;;;5053244;28;20543;-45
2022/10/12 09:00:39;;;;;;;9.43;2.63;;;;;;;;;;5053776;28;20304;-45
2022/10/12 09:03:08;;;;;;;9.83;3.20;;;;;;;;;;5053378;28;20228;-44
2022/10/12 09:05:37;;;;;;;5.83;2.73;;;;;;;;;;5053617;28;20222;-45
2022/10/12 09:08:06;;;;;;;6.63;2.60;;;;;;;;;;5053368;28;20794;-44
2022/10/12 09:10:37;;;;;;;6.37;2.77;;;;;;;;;;5053339;28;20246;-45
2022/10/12 09:13:08;;;;;;;7.77;2.83;;;;;;;;;;5053213;28;20253;-45
2022/10/12 09:15:37;;;;;;;8.77;2.27;;;;;;;;;;5053276;28;20196;-45
2022/10/12 09:18:05;;;;;;;5.90;2.13;;;;;;;;;;5052927;28;20704;-45
2022/10/12 09:20:34;;;;;;;6.60;2.63;;;;;;;;;;5053206;28;20298;-45
2022/10/12 09:23:01;;;;;;;6.40;2.50;;;;;;;;;;5053063;28;20212;-46
2022/10/12 09:25:28;;;;;;;6.37;2.87;;;;;;;;;;5053059;28;20205;-45
2022/10/12 09:27:57;;;;;;;6.07;2.60;;;;;;;;;;5053253;28;20202;-46
2022/10/12 09:30:23;;;;;;;9.20;2.50;;;;;;;;;;5053015;28;20207;-46
2022/10/12 09:32:55;;;;;;;6.13;2.97;;;;;;;;;;5053110;28;20235;-47
2022/10/12 09:35:21;;;;;;;7.40;2.90;;;;;;;;;;5052621;28;20210;-46
2022/10/12 09:37:49;;;;;;;9.10;2.93;;;;;;;;;;5050956;28;20199;-45
2022/10/12 09:40:18;;;;;;;5.40;2.20;;;;;;;;;;5052471;28;20198;-46
2022/10/12 09:42:44;;;;;;;6.97;2.80;;;;;;;;;;5050593;28;20640;-46
2022/10/12 09:45:13;;;;;;;8.00;2.53;;;;;;;;;;5051943;28;20209;-46
2022/10/12 09:47:39;;;;;;;6.43;2.40;;;;;;;;;;5052529;28;20207;-46
2022/10/12 09:50:07;;;;;;;5.67;2.60;;;;;;;;;;5051973;28;20294;-46
2022/10/12 09:52:40;;;;;;;8.43;2.60;;;;;;;;;;5052443;28;20614;-46
2022/10/12 09:55:17;;;;;;;8.40;2.67;;;;;;;;;;5051574;28;20615;-44
2022/10/12 09:57:51;;;;;;;6.27;2.50;;;;;;;;;;5051717;28;20203;-45
2022/10/12 10:00:23;;;;;;;6.90;2.50;;;;;;;;;;5051988;28;20299;-45
2022/10/12 10:02:50;;;;;;;6.07;2.37;;;;;;;;;;5052177;28;20236;-45
2022/10/12 10:05:24;;;;;;;9.63;2.73;;;;;;;;;;5051937;28;20236;-45
2022/10/12 10:07:50;;;;;;;6.83;2.43;;;;;;;;;;5051554;28;20234;-45
2022/10/12 10:10:18;;;;;;;7.63;2.90;;;;;;;;;;5051249;28;20624;-45
2022/10/12 10:12:48;;;;;;;7.40;2.83;;;;;;;;;;5051324;28;20193;-45
2022/10/12 10:15:22;;;;;;;5.97;2.53;;;;;;;;;;5051690;28;20264;-45
2022/10/12 10:17:52;;;;;;;5.80;2.33;;;;;;;;;;5051331;28;20229;-45
2022/10/12 10:20:25;;;;;;;8.80;2.80;;;;;;;;;;5051480;28;20283;-45
2022/10/12 10:22:51;;;;;;;10.13;2.57;;;;;;;;;;5051739;28;20227;-45
2022/10/12 10:25:19;;;;;;;7.83;2.80;;;;;;;;;;5051614;28;20203;-45
2022/10/12 10:27:45;;;;;;;10.23;2.70;;;;;;;;;;5051626;28;20196;-45
2022/10/12 10:30:20;;;;;;;4.97;2.30;;;;;;;;;;5051326;28;20200;-45
2022/10/12 10:32:46;;;;;;;7.70;2.63;;;;;;;;;;5051676;28;20705;-45
2022/10/12 10:35:17;;;;;;;5.10;2.10;;;;;;;;;;5051448;28;20628;-45
2022/10/12 10:37:46;;;;;;;8.03;2.23;;;;;;;;;;5051413;28;20204;-45
2022/10/12 10:40:17;;;;;;;7.27;2.00;;;;;;;;;;5051444;28;20220;-45
2022/10/12 10:42:48;;;;;;;7.80;2.10;;;;;;;;;;5051447;28;20222;-45
2022/10/12 10:45:21;;;;;;;7.87;2.40;;;;;;;;;;5051188;28;20218;-45
2022/10/12 10:47:48;;;;;;;6.43;2.10;;;;;;;;;;5051383;28;20210;-45
2022/10/12 10:50:23;;;;;;;8.23;2.50;;;;;;;;;;5051124;28;20265;-45
2022/10/12 10:52:55;;;;;;;5.73;2.23;;;;;;;;;;5051539;28;20596;-46
2022/10/12 10:55:22;;;;;;;6.40;2.30;;;;;;;;;;5050781;28;20203;-46
2022/10/12 10:57:54;;;;;;;6.17;2.07;;;;;;;;;;5048256;28;20227;-47
2022/10/12 11:00:21;;;;;;;9.97;2.20;;;;;;;;;;5050219;28;20261;-45
2022/10/12 11:02:50;;;;;;;4.93;1.90;;;;;;;;;;5051072;28;20266;-47
2022/10/12 11:05:18;;;;;;;6.23;1.97;;;;;;;;;;5049933;28;20772;-46
2022/10/12 11:07:47;;;;;;;6.40;2.23;;;;;;;;;;5051095;28;20213;-46
2022/10/12 11:10:20;;;;;;;6.03;2.30;;;;;;;;;;5049477;28;20555;-46
2022/10/12 11:12:48;;;;;;;7.37;2.20;;;;;;;;;;5049870;28;20214;-46
2022/10/12 11:15:17;;;;;;;5.93;2.10;;;;;;;;;;5051541;28;20211;-46
2022/10/12 11:17:46;;;;;;;7.47;2.07;;;;;;;;;;5051588;28;20200;-46
2022/10/12 11:20:24;;;;;;;5.87;2.20;;;;;;;;;;5051531;28;20214;-45
2022/10/12 11:22:53;;;;;;;10.63;2.50;;;;;;;;;;5053370;28;20227;-45
2022/10/12 11:25:23;;;;;;;4.73;1.93;;;;;;;;;;5055169;28;20253;-45
2022/10/12 11:27:49;;;;;;;6.13;2.07;;;;;;;;;;5055408;28;20405;-45
2022/10/12 11:30:16;;;;;;;6.70;2.40;;;;;;;;;;5055370;28;20194;-45
2022/10/12 11:32:44;;;;;;;6.23;2.60;;;;;;;;;;5055468;28;20195;-45
2022/10/12 11:35:14;;;;;;;4.17;1.63;;;;;;;;;;5055198;28;20231;-45
2022/10/12 11:37:43;;;;;;;7.33;2.07;;;;;;;;;;5054968;28;20684;-46
2022/10/12 11:40:17;;;;;;;4.63;1.80;;;;;;;;;;5054611;28;20257;-46
2022/10/12 11:42:44;;;;;;;5.97;2.00;;;;;;;;;;5052274;28;20251;-46
2022/10/12 11:45:17;;;;;;;7.47;2.37;;;;;;;;;;5054959;28;20199;-47
2022/10/12 11:47:46;;;;;;;7.53;2.30;;;;;;;;;;5055050;28;20196;-47
2022/10/12 11:50:18;;;;;;;5.43;1.90;;;;;;;;;;5054017;28;20315;-46
2022/10/12 11:52:45;;;;;;;5.37;1.93;;;;;;;;;;5053771;28;20188;-45
2022/10/12 11:55:24;;;;;;;10.73;2.47;;;;;;;;;;5052236;28;20242;-46
2022/10/12 11:57:52;;;;;;;8.50;2.17;;;;;;;;;;5054768;28;20212;-46
2022/10/12 12:00:22;;;;;;;6.67;2.20;;;;;;;;;;5054833;28;20203;-46
2022/10/12 12:02:50;;;;;;;7.57;2.03;;;;;;;;;;5054716;28;20232;-46
2022/10/12 12:05:16;;;;;;;4.83;1.93;;;;;;;;;;5054320;28;20722;-46
2022/10/12 12:07:44;;;;;;;7.10;2.10;;;;;;;;;;5054482;28;20212;-47
2022/10/12 12:10:36;;;;;;;5.97;2.30;;;;;;;;;;5054418;28;20617;-47
2022/10/12 12:13:18;;;;;;;5.57;2.10;;;;;;;;;;5051301;28;20196;-46
2022/10/12 12:16:05;;;;;;;9.90;2.20;;;;;;;;;;5054456;28;20208;-45
2022/10/12 12:18:32;;;;;;;7.20;2.03;;;;;;;;;;5053719;28;20203;-46
2022/10/12 12:21:00;;;;;;;7.83;1.87;;;;;;;;;;5054200;28;20224;-45
2022/10/12 12:23:27;;;;;;;10.00;2.30;;;;;;;;;;5052349;28;20204;-46
2022/10/12 12:26:04;;;;;;;9.13;2.20;;;;;;;;;;5052285;28;20752;-46
2022/10/12 12:28:32;;;;;;;5.73;2.07;;;;;;;;;;5054211;28;20192;-46
2022/10/12 12:30:59;;;;;;;6.47;2.30;;;;;;;;;;5054131;28;20265;-46
2022/10/12 12:33:28;;;;;;;4.40;2.30;;;;;;;;;;5053518;28;20203;-46
2022/10/12 12:35:56;;;;;;;7.37;2.20;;;;;;;;;;5054040;28;20196;-45
2022/10/12 12:38:23;;;;;;;7.13;1.87;;;;;;;;;;5053847;28;20701;-46
2022/10/12 12:40:54;;;;;;;6.70;2.10;;;;;;;;;;5054078;28;20200;-46
2022/10/12 12:43:34;;;;;;;9.43;2.60;;;;;;;;;;5054132;28;20218;-45
2022/10/12 12:46:03;;;;;;;9.63;2.30;;;;;;;;;;5053892;28;20209;-47
2022/10/12 12:48:48;;;;;;;4.47;1.73;;;;;;;;;;5053734;28;20211;-46
2022/10/12 12:51:14;;;;;;;4.50;2.00;;;;;;;;;;5053471;28;20238;-46
2022/10/12 12:53:44;;;;;;;8.10;2.13;;;;;;;;;;5053764;28;20260;-45
2022/10/12 12:56:17;;;;;;;5.70;2.13;;;;;;;;;;5053637;28;20199;-46
2022/10/12 12:59:00;;;;;;;5.97;2.00;;;;;;;;;;5053814;28;20287;-46
2022/10/12 13:01:40;;;;;;;8.47;2.20;;;;;;;;;;5053456;28;20368;-45
2022/10/12 13:04:21;;;;;;;6.53;2.10;;;;;;;;;;5051092;28;20688;-45
2022/10/12 13:07:04;;;;;;;4.10;1.67;;;;;;;;;;5051371;28;20256;-45
2022/10/12 13:09:35;;;;;;;5.57;1.70;;;;;;;;;;5042679;28;20221;-46
2022/10/12 13:12:11;;;;;;;6.53;1.97;;;;;;;;;;5053137;28;20672;-46
2022/10/12 13:14:48;;;;;;;6.87;2.10;;;;;;;;;;5051469;28;20275;-46
2022/10/12 13:17:21;;;;;;;3.43;1.77;;;;;;;;;;5053017;28;20202;-46
2022/10/12 13:19:48;;;;;;;6.63;2.07;;;;;;;;;;5051289;28;20209;-46
2022/10/12 13:22:16;;;;;;;4.23;1.70;;;;;;;;;;5053110;28;20238;-46
2022/10/12 13:24:45;;;;;;;5.17;1.77;;;;;;;;;;5052963;28;20223;-46
2022/10/12 13:27:15;;;;;;;4.87;1.77;;;;;;;;;;5052859;28;20230;-46
2022/10/12 13:29:45;;;;;;;2.87;1.60;;;;;;;;;;5052699;28;20264;-46
2022/10/12 13:32:18;;;;;;;4.63;1.87;;;;;;;;;;5051046;28;20258;-46
2022/10/12 13:34:46;;;;;;;4.60;2.27;;;;;;;;;;5052771;28;20204;-46
2022/10/12 13:37:15;;;;;;;3.47;1.50;;;;;;;;;;5052700;28;20207;-46
2022/10/12 13:39:43;;;;;;;5.83;2.03;;;;;;;;;;5053062;28;20209;-46
2022/10/12 13:42:13;;;;;;;4.43;1.70;;;;;;;;;;5052432;28;20226;-46
2022/10/12 13:44:40;;;;;;;5.20;1.67;;;;;;;;;;5049664;28;20264;-45
2022/10/12 13:47:21;;;;;;;5.37;2.10;;;;;;;;;;5051855;28;20608;-45
2022/10/12 13:49:47;;;;;;;5.63;2.03;;;;;;;;;;5052473;28;20233;-46
2022/10/12 13:52:20;;;;;;;5.63;2.07;;;;;;;;;;5051786;28;20193;-46
2022/10/12 13:54:47;;;;;;;7.33;1.83;;;;;;;;;;5051675;28;20738;-46
2022/10/12 13:57:16;;;;;;;3.43;1.80;;;;;;;;;;5052411;28;20197;-46
2022/10/12 13:59:42;;;;;;;4.23;1.80;;;;;;;;;;5052161;28;20248;-46
2022/10/12 14:02:15;;;;;;;5.60;1.73;;;;;;;;;;5051487;28;20226;-48
2022/10/12 14:04:42;;;;;;;5.60;2.17;;;;;;;;;;5052279;28;20248;-46
2022/10/12 14:07:14;;;;;;;4.73;1.77;;;;;;;;;;5051997;28;20293;-46
2022/10/12 14:09:43;;;;;;;3.60;1.73;;;;;;;;;;5052207;28;20193;-46
2022/10/12 14:12:10;;;;;;;5.07;1.80;;;;;;;;;;5050170;28;20193;-46
2022/10/12 14:14:36;;;;;;;3.53;1.73;;;;;;;;;;5050773;28;20203;-46
2022/10/12 14:17:03;;;;;;;6.37;2.00;;;;;;;;;;5051507;28;20204;-45
2022/10/12 14:19:34;;;;;;;4.87;2.00;;;;;;;;;;5051523;28;20202;-45
2022/10/12 14:22:00;;;;;;;3.63;1.70;;;;;;;;;;5051448;28;20236;-45
2022/10/12 14:24:26;;;;;;;4.30;1.73;;;;;;;;;;5051418;28;20247;-54
2022/10/12 14:26:55;;;;;;;6.87;2.27;;;;;;;;;;5050673;28;20212;-44
2022/10/12 14:29:25;;;;;;;4.00;2.00;;;;;;;;;;5050877;28;20212;-44
2022/10/12 14:31:52;;;;;;;3.27;1.73;;;;;;;;;;5051367;28;20238;-45
2022/10/12 14:34:22;;;;;;;5.50;2.10;;;;;;;;;;5051101;28;20193;-45
2022/10/12 14:36:58;;;;;;;4.63;2.20;;;;;;;;;;5051610;28;20210;-45
2022/10/12 14:39:25;;;;;;;3.37;1.43;;;;;;;;;;5051456;28;20572;-44
2022/10/12 14:41:53;;;;;;;3.27;1.37;;;;;;;;;;5051468;28;20236;-45
2022/10/12 14:44:20;;;;;;;6.03;1.87;;;;;;;;;;5051220;28;20208;-45
2022/10/12 14:46:49;;;;;;;4.57;2.07;;;;;;;;;;5051122;28;20192;-45
2022/10/12 14:49:17;;;;;;;5.00;1.60;;;;;;;;;;5051269;28;20659;-45